Time;durP1;ratioP1;P1;durP2;ratioP2;P2;SDS_P1;SDS_P2;PMS_P1;PMS_P2;Temp;Humidity;BMP_temperature;BMP_pressure;BME280_temperature;BME280_humidity;BME280_pressure;Samples;Min_cycle;Max_cycle;Signal;HPM_P1;HPM_P2
2023/10/29 00:02:09;;;;;;;10.45;1.60;;;11.20;99.90;;;;;;6240213;28;20070;-79
2023/10/29 00:05:12;;;;;;;4.18;1.42;;;11.20;99.90;;;;;;6244431;28;20486;-81
2023/10/29 00:08:14;;;;;;;2.33;1.55;;;11.10;99.90;;;;;;6230656;28;20672;-81
2023/10/29 00:11:15;;;;;;;9.23;1.95;;;11.20;99.90;;;;;;6236523;28;20050;-82
2023/10/29 00:14:17;;;;;;;6.45;1.88;;;11.10;99.90;;;;;;6240345;28;20128;-81
2023/10/29 00:17:19;;;;;;;1.95;1.27;;;11.10;99.90;;;;;;6245864;28;20049;-80
2023/10/29 00:20:22;;;;;;;7.32;1.83;;;11.10;99.90;;;;;;6241182;28;20045;-80
2023/10/29 00:23:24;;;;;;;4.68;1.67;;;11.10;99.90;;;;;;6236364;28;20398;-80
2023/10/29 00:26:25;;;;;;;1.33;1.23;;;11.10;99.90;;;;;;6233280;28;20079;-82
2023/10/29 00:29:27;;;;;;;17.38;2.00;;;11.00;99.90;;;;;;6233911;28;20040;-79
2023/10/29 00:32:29;;;;;;;2.97;1.10;;;11.00;99.90;;;;;;6219900;28;20054;-81
2023/10/29 00:35:32;;;;;;;4.18;1.60;;;11.10;99.90;;;;;;6220577;28;20487;-82
2023/10/29 00:38:34;;;;;;;6.03;1.70;;;11.10;99.90;;;;;;6230663;28;20061;-81
2023/10/29 00:41:36;;;;;;;2.58;1.50;;;11.10;99.90;;;;;;6231395;28;20049;-81
2023/10/29 00:44:38;;;;;;;2.95;1.83;;;11.10;99.90;;;;;;6236510;28;20054;-80
2023/10/29 00:47:40;;;;;;;4.85;1.25;;;11.10;99.90;;;;;;6232490;28;20049;-81
2023/10/29 00:50:43;;;;;;;2.30;1.40;;;11.10;99.90;;;;;;6232782;28;20056;-82
2023/10/29 00:53:45;;;;;;;1.38;1.27;;;11.10;99.90;;;;;;6212135;28;20045;-80
2023/10/29 00:56:47;;;;;;;4.57;1.65;;;11.10;99.90;;;;;;6213608;28;20125;-80
2023/10/29 00:59:49;;;;;;;2.30;0.98;;;11.10;99.90;;;;;;6212442;28;20046;-80
2023/10/29 01:02:50;;;;;;;5.15;1.63;;;11.10;99.90;;;;;;6205867;28;20419;-82
2023/10/29 01:05:53;;;;;;;3.10;1.85;;;11.10;99.90;;;;;;6211705;28;20053;-81
2023/10/29 01:08:55;;;;;;;12.18;1.52;;;11.10;99.90;;;;;;6212647;28;20055;-81
2023/10/29 01:11:57;;;;;;;7.07;1.25;;;11.20;99.90;;;;;;6212321;28;20050;-81
2023/10/29 01:14:59;;;;;;;3.00;1.42;;;11.20;99.90;;;;;;6212044;28;20053;-80
2023/10/29 01:18:01;;;;;;;1.85;1.45;;;11.10;99.90;;;;;;6214269;28;20069;-81
2023/10/29 01:21:04;;;;;;;5.35;1.77;;;11.10;99.90;;;;;;6213606;28;20054;-82
2023/10/29 01:24:07;;;;;;;2.47;1.52;;;11.10;99.90;;;;;;6238797;28;20047;-82
2023/10/29 01:27:10;;;;;;;5.22;1.85;;;11.10;99.90;;;;;;6226920;28;20395;-82
2023/10/29 01:30:12;;;;;;;3.30;1.50;;;11.10;99.90;;;;;;6214287;28;20046;-84
2023/10/29 01:33:14;;;;;;;4.10;1.17;;;11.10;99.90;;;;;;6233350;28;20053;-81
2023/10/29 01:36:17;;;;;;;5.65;1.60;;;11.00;99.90;;;;;;6221874;28;20046;-78
2023/10/29 01:39:19;;;;;;;4.85;1.40;;;11.00;99.90;;;;;;6213180;28;20364;-80
2023/10/29 01:42:21;;;;;;;2.22;1.48;;;11.00;99.90;;;;;;6219115;28;20048;-80
2023/10/29 01:45:23;;;;;;;3.92;1.80;;;11.00;99.90;;;;;;6219306;28;20051;-80
2023/10/29 01:48:24;;;;;;;4.30;1.52;;;10.90;99.90;;;;;;6226933;28;20046;-82
2023/10/29 01:51:27;;;;;;;3.42;1.40;;;10.90;99.90;;;;;;6233323;28;20051;-80
2023/10/29 01:54:29;;;;;;;1.35;1.10;;;10.90;99.90;;;;;;6231874;28;20056;-80
2023/10/29 01:57:32;;;;;;;4.45;1.70;;;10.90;99.90;;;;;;6242183;28;20433;-82
2023/10/29 02:00:33;;;;;;;5.68;1.20;;;10.90;99.90;;;;;;6237577;28;20058;-82
2023/10/29 02:03:35;;;;;;;3.40;0.93;;;10.90;99.90;;;;;;6237777;28;20109;-81
2023/10/29 02:06:39;;;;;;;1.33;1.10;;;10.90;99.90;;;;;;6245417;28;20052;-79
2023/10/29 02:09:41;;;;;;;6.30;1.40;;;10.90;99.90;;;;;;6241862;28;20422;-80
2023/10/29 02:12:43;;;;;;;1.95;1.70;;;10.90;99.90;;;;;;6244483;28;20370;-80
2023/10/29 02:15:44;;;;;;;2.33;1.00;;;10.90;99.90;;;;;;6237280;28;20407;-82
2023/10/29 02:18:46;;;;;;;2.75;1.40;;;11.00;99.90;;;;;;6246980;28;20132;-80
2023/10/29 02:21:49;;;;;;;2.00;0.82;;;11.00;99.90;;;;;;6243802;28;20045;-84
2023/10/29 02:24:52;;;;;;;6.07;1.60;;;11.00;99.90;;;;;;6230167;28;20050;-82
2023/10/29 02:27:54;;;;;;;5.78;1.92;;;11.00;99.90;;;;;;6245192;28;20042;-85
2023/10/29 02:30:55;;;;;;;7.28;1.60;;;11.00;99.90;;;;;;6237859;28;20133;-82
2023/10/29 02:33:57;;;;;;;3.38;2.33;;;11.00;99.90;;;;;;6244826;28;20049;-81
2023/10/29 02:36:59;;;;;;;4.55;1.48;;;11.00;99.90;;;;;;6239693;28;20136;-81
2023/10/29 02:40:02;;;;;;;7.70;1.70;;;10.90;99.90;;;;;;6238565;28;20483;-82
2023/10/29 02:43:06;;;;;;;3.03;1.15;;;11.00;99.90;;;;;;6237800;28;20148;-84
2023/10/29 02:46:07;;;;;;;2.00;1.35;;;10.90;99.90;;;;;;6243507;28;20170;-80
2023/10/29 02:49:09;;;;;;;7.45;1.45;;;10.90;99.90;;;;;;6235175;28;20042;-82
2023/10/29 02:52:11;;;;;;;1.05;0.80;;;10.90;99.90;;;;;;6230472;28;20041;-80
2023/10/29 02:55:14;;;;;;;1.80;1.40;;;10.80;99.90;;;;;;6241830;28;20140;-85
2023/10/29 02:58:15;;;;;;;2.90;1.77;;;10.80;99.90;;;;;;6252572;28;20150;-83
2023/10/29 03:01:17;;;;;;;0.88;0.85;;;10.80;99.90;;;;;;6243503;28;20063;-80
2023/10/29 03:04:19;;;;;;;1.95;1.70;;;10.80;99.90;;;;;;6230636;28;20048;-83
2023/10/29 03:07:21;;;;;;;4.40;1.08;;;10.80;99.90;;;;;;6244075;28;21234;-83
2023/10/29 03:10:24;;;;;;;1.30;1.02;;;10.70;99.90;;;;;;6242654;28;20175;-83
2023/10/29 03:13:26;;;;;;;15.30;1.77;;;10.70;99.90;;;;;;6239560;28;20062;-82
2023/10/29 03:16:27;;;;;;;8.88;1.73;;;10.70;99.90;;;;;;6237022;28;20041;-85
2023/10/29 03:19:29;;;;;;;1.05;0.80;;;10.70;99.90;;;;;;6244373;28;20051;-82
2023/10/29 03:22:31;;;;;;;6.05;1.45;;;10.70;99.90;;;;;;6239737;28;20084;-80
2023/10/29 03:25:34;;;;;;;2.08;1.60;;;10.70;99.90;;;;;;6235343;28;20042;-81
2023/10/29 03:28:37;;;;;;;2.25;1.27;;;10.80;99.90;;;;;;6242137;28;20042;-83
2023/10/29 03:31:39;;;;;;;3.63;1.00;;;10.80;99.90;;;;;;6235544;28;20120;-82
2023/10/29 03:34:40;;;;;;;3.30;1.80;;;10.80;99.90;;;;;;6228725;28;20041;-81
2023/10/29 03:37:42;;;;;;;6.90;1.83;;;10.80;99.90;;;;;;6235852;28;20041;-80
2023/10/29 03:40:45;;;;;;;5.60;1.70;;;10.80;99.90;;;;;;6240060;28;20051;-82
2023/10/29 03:43:47;;;;;;;3.85;1.70;;;10.80;99.90;;;;;;6236122;28;20654;-84
2023/10/29 03:46:51;;;;;;;2.40;1.98;;;10.90;99.90;;;;;;6230972;28;20042;-81
2023/10/29 03:49:53;;;;;;;4.32;1.48;;;10.90;99.90;;;;;;6225945;28;20068;-83
2023/10/29 03:52:54;;;;;;;2.75;2.00;;;10.90;99.90;;;;;;6241328;28;20050;-85
2023/10/29 03:56:00;;;;;;;3.28;1.75;;;10.90;99.90;;;;;;6240811;28;20048;-84
2023/10/29 03:59:02;;;;;;;3.58;1.85;;;10.90;99.90;;;;;;6233250;28;20044;-83
2023/10/29 04:02:04;;;;;;;5.72;2.17;;;10.90;99.90;;;;;;6242728;28;20076;-80
2023/10/29 04:05:06;;;;;;;5.53;2.03;;;10.90;99.90;;;;;;6242742;28;20050;-81
2023/10/29 04:08:08;;;;;;;6.13;2.83;;;10.90;99.90;;;;;;6226758;28;20127;-82
2023/10/29 04:11:11;;;;;;;4.03;2.83;;;10.90;99.90;;;;;;6244233;28;20494;-82
2023/10/29 04:14:13;;;;;;;2.63;2.13;;;11.00;99.90;;;;;;6237343;28;20422;-82
2023/10/29 04:17:15;;;;;;;4.25;1.75;;;11.00;99.90;;;;;;6241773;28;20135;-83
2023/10/29 04:20:16;;;;;;;4.82;1.73;;;10.90;99.90;;;;;;6242733;28;20041;-83
2023/10/29 04:23:18;;;;;;;2.88;1.95;;;10.90;99.90;;;;;;6242836;28;20042;-81
2023/10/29 04:26:21;;;;;;;2.67;1.52;;;10.90;99.90;;;;;;6242206;28;20049;-84
2023/10/29 04:29:23;;;;;;;4.13;1.80;;;10.80;99.90;;;;;;6249833;28;20045;-81
2023/10/29 04:32:24;;;;;;;2.05;1.40;;;10.80;99.90;;;;;;6250241;28;20064;-83
2023/10/29 04:35:26;;;;;;;1.98;1.30;;;10.80;99.90;;;;;;6242105;28;20050;-83
2023/10/29 04:38:28;;;;;;;5.05;2.22;;;10.80;99.90;;;;;;6246840;28;20486;-82
2023/10/29 04:41:31;;;;;;;3.65;1.70;;;10.80;99.90;;;;;;6238204;28;20517;-82
2023/10/29 04:44:33;;;;;;;5.55;1.52;;;10.80;99.90;;;;;;6239467;28;20416;-80
2023/10/29 04:47:35;;;;;;;1.70;1.60;;;10.80;99.90;;;;;;6236046;28;20052;-84
2023/10/29 04:50:37;;;;;;;2.15;1.55;;;10.80;99.90;;;;;;6231863;28;20048;-82
2023/10/29 04:53:38;;;;;;;6.32;2.28;;;10.80;99.90;;;;;;6232980;28;20056;-81
2023/10/29 04:56:41;;;;;;;2.08;1.73;;;10.80;99.90;;;;;;6244915;28;20056;-80
2023/10/29 04:59:43;;;;;;;8.02;2.15;;;10.70;99.90;;;;;;6238473;28;20045;-81
2023/10/29 05:02:45;;;;;;;2.47;1.60;;;10.70;99.90;;;;;;6241511;28;20056;-82
2023/10/29 05:05:46;;;;;;;1.90;1.30;;;10.70;99.90;;;;;;6228733;28;20052;-81
2023/10/29 05:08:49;;;;;;;2.08;1.60;;;10.70;99.90;;;;;;6235511;28;20049;-82
2023/10/29 05:11:52;;;;;;;3.45;1.67;;;10.70;99.90;;;;;;6234648;28;20046;-80
2023/10/29 05:14:54;;;;;;;2.83;2.00;;;10.80;99.90;;;;;;6248123;28;20045;-83
2023/10/29 05:17:55;;;;;;;2.85;1.90;;;10.80;99.90;;;;;;6241428;28;20056;-80
2023/10/29 05:20:57;;;;;;;2.90;1.63;;;10.80;99.90;;;;;;6241670;28;20053;-81
2023/10/29 05:23:59;;;;;;;3.90;1.42;;;10.80;99.90;;;;;;6241225;28;20041;-83
2023/10/29 05:27:02;;;;;;;4.50;1.50;;;10.80;99.90;;;;;;6234643;28;20094;-80
2023/10/29 05:30:06;;;;;;;6.07;2.13;;;10.80;99.90;;;;;;6231342;28;20128;-81
2023/10/29 05:33:07;;;;;;;2.35;2.15;;;10.80;99.90;;;;;;6240328;28;20399;-80
2023/10/29 05:36:10;;;;;;;2.15;1.58;;;10.90;99.90;;;;;;6232803;28;20072;-82
2023/10/29 05:39:14;;;;;;;3.53;1.98;;;10.90;99.90;;;;;;6238459;28;20075;-82
2023/10/29 05:42:17;;;;;;;9.85;1.92;;;10.90;99.90;;;;;;6237509;28;20060;-82
2023/10/29 05:45:19;;;;;;;8.85;1.92;;;10.90;99.90;;;;;;6231803;28;20147;-86
2023/10/29 05:48:20;;;;;;;2.88;2.00;;;11.00;99.90;;;;;;6233192;28;20045;-81
2023/10/29 05:51:22;;;;;;;2.40;2.20;;;10.90;99.90;;;;;;6248854;28;20049;-80
2023/10/29 05:54:24;;;;;;;5.53;2.15;;;11.00;99.90;;;;;;6243700;28;20046;-82
2023/10/29 05:57:27;;;;;;;4.72;1.42;;;11.00;99.90;;;;;;6251622;28;20057;-84
2023/10/29 06:00:29;;;;;;;7.55;1.63;;;10.90;99.90;;;;;;6242311;28;20049;-84
2023/10/29 06:03:30;;;;;;;3.17;1.63;;;10.90;99.90;;;;;;6246650;28;20757;-82
2023/10/29 06:06:32;;;;;;;4.72;2.70;;;10.90;99.90;;;;;;6242944;28;20050;-82
2023/10/29 06:09:34;;;;;;;9.48;3.97;;;10.90;99.90;;;;;;6223023;28;20041;-82
2023/10/29 06:12:37;;;;;;;10.82;2.28;;;10.90;99.90;;;;;;6243113;28;20041;-84
2023/10/29 06:15:39;;;;;;;4.15;2.20;;;11.00;99.90;;;;;;6243444;28;20041;-82
2023/10/29 06:18:40;;;;;;;4.22;1.73;;;11.00;99.90;;;;;;6242648;28;20041;-80
2023/10/29 06:21:42;;;;;;;6.82;1.70;;;11.00;99.90;;;;;;6249560;28;20116;-82
2023/10/29 06:24:44;;;;;;;4.35;1.58;;;10.90;99.90;;;;;;6250009;28;20046;-81
2023/10/29 06:27:47;;;;;;;2.25;1.88;;;10.90;99.90;;;;;;6233400;28;20045;-81
2023/10/29 06:30:49;;;;;;;23.60;17.35;;;11.00;99.90;;;;;;6257314;28;20049;-80
2023/10/29 06:33:50;;;;;;;14.48;10.23;;;11.00;99.90;;;;;;6270282;28;20029;-80
2023/10/29 06:36:52;;;;;;;27.10;19.15;;;11.00;99.90;;;;;;6198623;28;20590;-80
2023/10/29 06:39:54;;;;;;;16.58;14.52;;;11.00;99.90;;;;;;6223745;28;20045;-81
2023/10/29 06:42:57;;;;;;;4.00;3.60;;;11.10;99.90;;;;;;6233793;28;20049;-80
2023/10/29 06:45:59;;;;;;;6.97;4.68;;;11.10;99.90;;;;;;6241095;28;20048;-80
2023/10/29 06:49:00;;;;;;;4.95;4.45;;;11.10;99.90;;;;;;6242660;28;20096;-80
2023/10/29 06:52:02;;;;;;;4.57;3.35;;;11.20;99.90;;;;;;6240276;28;20084;-82
2023/10/29 06:55:04;;;;;;;4.65;3.50;;;11.20;99.90;;;;;;6238783;28;20046;-78
2023/10/29 06:58:07;;;;;;;7.20;2.33;;;11.20;99.90;;;;;;6236972;28;20054;-80
2023/10/29 07:01:10;;;;;;;4.63;2.25;;;11.20;99.90;;;;;;6245198;28;20041;-79
2023/10/29 07:04:12;;;;;;;6.85;2.00;;;11.20;99.90;;;;;;6243620;28;20057;-79
2023/10/29 07:07:14;;;;;;;1.90;1.33;;;11.10;99.90;;;;;;6236422;28;20046;-80
2023/10/29 07:10:15;;;;;;;5.22;1.52;;;11.10;99.90;;;;;;6226956;28;20120;-79
2023/10/29 07:13:19;;;;;;;2.67;1.30;;;11.00;99.90;;;;;;6240748;28;20047;-79
2023/10/29 07:16:20;;;;;;;2.53;1.58;;;11.00;99.90;;;;;;6237311;28;20049;-78
2023/10/29 07:19:22;;;;;;;2.60;1.58;;;11.00;99.90;;;;;;6250201;28;20049;-78
2023/10/29 07:22:24;;;;;;;3.88;1.55;;;11.00;99.90;;;;;;6235234;28;20055;-80
2023/10/29 07:25:25;;;;;;;1.60;1.30;;;11.00;99.90;;;;;;6232960;28;20046;-79
2023/10/29 07:28:29;;;;;;;3.05;1.75;;;11.00;99.90;;;;;;6249714;28;20481;-79
2023/10/29 07:31:30;;;;;;;2.58;1.73;;;11.00;99.90;;;;;;6244767;28;20109;-79
2023/10/29 07:34:32;;;;;;;3.05;2.13;;;11.00;99.90;;;;;;6240949;28;20399;-79
2023/10/29 07:37:34;;;;;;;3.28;1.75;;;11.00;99.90;;;;;;6230064;28;20045;-80
2023/10/29 07:40:36;;;;;;;1.70;1.20;;;11.10;99.90;;;;;;6233741;28;20474;-79
2023/10/29 07:43:39;;;;;;;3.40;1.63;;;11.10;99.90;;;;;;6238903;28;20049;-80
2023/10/29 07:46:41;;;;;;;2.20;1.60;;;11.00;99.90;;;;;;6233778;28;20048;-80
2023/10/29 07:49:43;;;;;;;2.22;1.80;;;11.00;99.90;;;;;;6227771;28;20569;-80
2023/10/29 07:52:45;;;;;;;6.97;2.00;;;11.00;99.90;;;;;;6226415;28;20041;-80
2023/10/29 07:55:47;;;;;;;2.85;2.10;;;11.10;99.90;;;;;;6224850;28;20046;-80
2023/10/29 07:58:51;;;;;;;5.43;1.77;;;11.10;99.90;;;;;;6224385;28;20052;-79
2023/10/29 08:01:53;;;;;;;6.95;1.90;;;11.10;99.90;;;;;;6230993;28;20458;-79
2023/10/29 08:04:55;;;;;;;5.57;2.40;;;11.10;99.90;;;;;;6239670;28;20524;-80
2023/10/29 08:07:57;;;;;;;3.65;2.35;;;11.20;99.90;;;;;;6243358;28;20510;-80
2023/10/29 08:10:58;;;;;;;3.97;2.53;;;11.20;99.90;;;;;;6243421;28;20052;-80
2023/10/29 08:14:01;;;;;;;3.50;2.35;;;11.20;99.90;;;;;;6243496;28;20044;-78
2023/10/29 08:17:03;;;;;;;3.03;2.45;;;11.30;99.90;;;;;;6242530;28;20041;-81
2023/10/29 08:20:06;;;;;;;2.17;1.98;;;11.30;99.90;;;;;;6235095;28;20038;-80
2023/10/29 08:23:07;;;;;;;6.95;2.28;;;11.40;99.90;;;;;;6235321;28;20045;-81
2023/10/29 08:26:09;;;;;;;3.30;2.28;;;11.40;99.90;;;;;;6239397;28;20056;-79
2023/10/29 08:29:13;;;;;;;5.05;2.30;;;11.50;99.90;;;;;;6241142;28;20502;-80
2023/10/29 08:32:15;;;;;;;4.10;2.10;;;11.60;99.90;;;;;;6247747;28;20037;-80
2023/10/29 08:35:16;;;;;;;9.15;2.63;;;11.60;99.90;;;;;;6241433;28;20540;-80
2023/10/29 08:38:19;;;;;;;3.60;1.58;;;11.70;99.90;;;;;;6227376;28;20050;-79
2023/10/29 08:41:20;;;;;;;4.28;2.40;;;11.80;99.90;;;;;;6224452;28;20196;-81
2023/10/29 08:44:23;;;;;;;5.38;1.98;;;11.90;99.90;;;;;;6226469;28;20518;-82
2023/10/29 08:47:26;;;;;;;13.55;2.47;;;12.00;99.90;;;;;;6238823;28;20076;-79
2023/10/29 08:50:28;;;;;;;5.25;2.65;;;12.10;99.90;;;;;;6238314;28;20056;-80
2023/10/29 08:53:30;;;;;;;5.50;3.25;;;12.20;99.90;;;;;;6224027;28;20053;-79
2023/10/29 08:56:33;;;;;;;2.63;1.92;;;12.30;99.90;;;;;;6227848;28;20065;-80
2023/10/29 08:59:36;;;;;;;3.55;2.92;;;12.40;99.90;;;;;;6231659;28;20042;-81
2023/10/29 09:02:38;;;;;;;2.80;2.05;;;12.50;99.90;;;;;;6231211;28;20191;-78
2023/10/29 09:05:40;;;;;;;3.63;2.42;;;12.50;99.90;;;;;;6238643;28;20502;-80
2023/10/29 09:08:42;;;;;;;2.35;2.05;;;12.60;99.90;;;;;;6241814;28;20053;-80
2023/10/29 09:11:44;;;;;;;3.97;2.00;;;12.60;99.90;;;;;;6236219;28;20046;-80
2023/10/29 09:14:47;;;;;;;6.63;2.15;;;12.60;99.90;;;;;;6243457;28;20046;-80
2023/10/29 09:17:49;;;;;;;3.45;2.10;;;12.70;99.90;;;;;;6256747;28;20094;-81
2023/10/29 09:20:51;;;;;;;4.43;2.83;;;12.80;99.90;;;;;;6226968;28;20053;-81
2023/10/29 09:23:53;;;;;;;4.80;2.80;;;12.90;99.90;;;;;;6215038;28;20045;-81
2023/10/29 09:26:56;;;;;;;4.90;2.50;;;13.00;99.90;;;;;;6220402;28;20053;-80
2023/10/29 09:29:59;;;;;;;5.18;2.38;;;12.90;99.90;;;;;;6219243;28;20045;-80
2023/10/29 09:33:01;;;;;;;13.18;7.13;;;13.00;99.90;;;;;;6243940;28;20128;-79
2023/10/29 09:36:03;;;;;;;30.65;20.27;;;13.00;99.90;;;;;;6250037;28;20042;-81
2023/10/29 09:39:05;;;;;;;31.10;16.85;;;13.00;99.90;;;;;;6238051;28;20050;-81
2023/10/29 09:42:09;;;;;;;84.65;54.65;;;13.10;99.90;;;;;;6251943;28;20460;-80
2023/10/29 09:45:15;;;;;;;83.45;74.40;;;13.10;99.90;;;;;;6236167;28;20041;-81
2023/10/29 09:48:17;;;;;;;12.43;11.23;;;13.20;99.90;;;;;;6220256;28;20526;-81
2023/10/29 09:51:21;;;;;;;3.67;3.35;;;13.20;99.90;;;;;;6215071;28;20044;-81
2023/10/29 09:54:23;;;;;;;6.95;3.35;;;13.30;99.90;;;;;;6221025;28;20046;-81
2023/10/29 09:57:25;;;;;;;4.72;4.32;;;13.30;99.90;;;;;;6233553;28;20048;-80
2023/10/29 10:00:28;;;;;;;15.05;12.93;;;13.40;99.90;;;;;;6244681;28;20041;-81
2023/10/29 10:03:30;;;;;;;14.65;8.30;;;13.40;99.90;;;;;;6237342;28;20041;-82
2023/10/29 10:06:33;;;;;;;5.40;3.83;;;13.40;99.90;;;;;;6235496;28;20062;-80
2023/10/29 10:09:53;;;;;;;3.50;2.47;;;13.40;99.90;;;;;;6232839;28;20531;-81
2023/10/29 10:12:54;;;;;;;3.42;2.42;;;13.40;99.90;;;;;;6235786;28;20058;-81
2023/10/29 10:16:06;;;;;;;3.13;2.05;;;13.40;99.90;;;;;;6234968;28;20041;-81
2023/10/29 10:19:08;;;;;;;4.70;2.08;;;13.40;99.90;;;;;;6240892;28;20053;-81
2023/10/29 10:22:10;;;;;;;2.30;2.08;;;13.50;99.90;;;;;;6242789;28;20053;-81
2023/10/29 10:25:19;;;;;;;9.88;2.95;;;13.50;99.90;;;;;;6235945;28;20045;-82
2023/10/29 10:28:21;;;;;;;7.45;2.50;;;13.60;99.90;;;;;;6245805;28;20069;-81
2023/10/29 10:31:27;;;;;;;3.58;2.60;;;13.70;99.90;;;;;;6233308;28;20380;-81
2023/10/29 10:34:28;;;;;;;5.85;2.50;;;13.70;99.90;;;;;;6214689;28;20215;-80
2023/10/29 10:37:30;;;;;;;7.03;2.65;;;13.80;99.90;;;;;;6244906;28;20426;-81
2023/10/29 10:40:32;;;;;;;6.72;2.55;;;13.90;99.90;;;;;;6235176;28;20045;-81
2023/10/29 10:43:34;;;;;;;3.40;2.50;;;14.00;99.90;;;;;;6251601;28;20049;-81
2023/10/29 10:46:39;;;;;;;4.38;2.65;;;14.10;99.90;;;;;;6244826;28;20127;-82
2023/10/29 10:49:44;;;;;;;8.40;2.72;;;14.30;99.90;;;;;;6244953;28;20045;-81
2023/10/29 10:52:46;;;;;;;8.15;2.95;;;14.50;99.90;;;;;;6234305;28;20052;-81
2023/10/29 10:55:49;;;;;;;5.95;3.50;;;14.80;99.90;;;;;;6235672;28;20392;-81
2023/10/29 10:58:52;;;;;;;5.85;2.88;;;15.00;99.90;;;;;;6239474;28;20474;-82
2023/10/29 11:01:57;;;;;;;4.35;3.03;;;15.20;99.90;;;;;;6252314;28;20101;-81
2023/10/29 11:04:59;;;;;;;6.15;2.58;;;15.30;99.90;;;;;;6242956;28;20048;-81
2023/10/29 11:08:02;;;;;;;3.63;3.30;;;15.40;99.90;;;;;;6242915;28;20060;-80
2023/10/29 11:11:05;;;;;;;9.07;3.05;;;15.50;99.90;;;;;;6241994;28;20056;-82
2023/10/29 11:14:09;;;;;;;7.70;3.85;;;15.60;99.90;;;;;;6228347;28;20061;-83
2023/10/29 11:17:12;;;;;;;3.78;3.47;;;15.70;99.90;;;;;;6234893;28;20046;-82
2023/10/29 11:20:54;;;;;;;4.90;3.30;;;15.70;99.90;;;;;;6253385;28;20034;-81
2023/10/29 11:24:18;;;;;;;6.97;1.92;;;15.60;99.90;;;;;;6251671;28;20063;-82
2023/10/29 11:27:34;;;;;;;4.78;3.05;;;15.60;99.90;;;;;;6254331;28;20064;-81
2023/10/29 11:30:37;;;;;;;3.95;2.13;;;15.60;99.90;;;;;;6252616;28;20064;-82
2023/10/29 11:33:42;;;;;;;5.28;2.83;;;15.60;99.90;;;;;;6252056;28;20059;-81
2023/10/29 11:36:44;;;;;;;6.63;5.20;;;15.60;99.90;;;;;;6237437;28;20116;-82
2023/10/29 11:39:46;;;;;;;5.43;2.63;;;15.60;99.90;;;;;;6227421;28;20052;-80
2023/10/29 11:42:47;;;;;;;5.63;2.92;;;15.70;99.90;;;;;;6226836;28;20061;-83
2023/10/29 11:45:54;;;;;;;7.60;2.20;;;15.80;99.90;;;;;;6225901;28;20557;-82
2023/10/29 11:49:05;;;;;;;5.85;2.88;;;15.90;99.90;;;;;;6231005;28;20056;-83
2023/10/29 11:52:07;;;;;;;2.90;2.60;;;15.90;99.90;;;;;;6227197;28;20045;-82
2023/10/29 11:55:10;;;;;;;2.58;2.22;;;15.90;99.90;;;;;;6227378;28;20434;-81
2023/10/29 11:58:12;;;;;;;5.75;2.22;;;15.90;99.90;;;;;;6227542;28;20057;-80
2023/10/29 12:01:20;;;;;;;2.60;1.98;;;15.80;99.90;;;;;;6226497;28;20049;-80
2023/10/29 12:04:30;;;;;;;2.40;2.20;;;15.80;99.90;;;;;;6226129;28;20042;-81
2023/10/29 12:07:32;;;;;;;5.53;1.95;;;15.70;99.90;;;;;;6229061;28;20053;-81
2023/10/29 12:10:45;;;;;;;2.53;1.60;;;15.50;99.90;;;;;;6231407;28;20049;-82
2023/10/29 12:13:47;;;;;;;2.45;2.13;;;15.40;99.90;;;;;;6251065;28;20057;-81
2023/10/29 12:16:49;;;;;;;3.30;1.60;;;15.30;99.90;;;;;;6249302;28;20049;-79
2023/10/29 12:19:52;;;;;;;5.43;2.95;;;15.20;99.90;;;;;;6250213;28;20042;-79
2023/10/29 12:22:57;;;;;;;5.78;2.13;;;15.20;99.90;;;;;;6250699;28;20049;-79
2023/10/29 12:26:01;;;;;;;3.55;3.13;;;15.20;99.90;;;;;;6241913;28;20054;-78
2023/10/29 12:29:02;;;;;;;5.43;3.30;;;15.40;99.90;;;;;;6226457;28;20046;-78
2023/10/29 12:32:06;;;;;;;3.10;2.42;;;15.50;99.90;;;;;;6214749;22;20491;-75
2023/10/29 12:35:09;;;;;;;3.78;2.60;;;15.60;99.90;;;;;;6196713;28;20392;-76
2023/10/29 12:38:11;;;;;;;4.93;3.78;;;15.70;99.90;;;;;;6192032;28;20181;-76
2023/10/29 12:41:14;;;;;;;4.43;3.90;;;15.90;99.90;;;;;;6204140;28;20042;-76
2023/10/29 12:44:17;;;;;;;6.15;3.78;;;15.90;99.90;;;;;;6217771;28;20061;-78
2023/10/29 12:47:18;;;;;;;3.40;3.00;;;15.90;99.90;;;;;;6212393;28;20050;-77
2023/10/29 12:50:21;;;;;;;4.75;4.05;;;15.90;99.90;;;;;;6222110;28;20050;-75
2023/10/29 12:53:24;;;;;;;6.05;2.80;;;15.80;99.90;;;;;;6229814;28;20503;-76
2023/10/29 12:56:27;;;;;;;4.35;2.38;;;15.80;99.90;;;;;;6205909;28;20143;-76
2023/10/29 12:59:31;;;;;;;2.55;1.70;;;15.70;99.90;;;;;;6213324;28;20133;-78
2023/10/29 13:02:33;;;;;;;3.13;2.28;;;15.70;99.90;;;;;;6240976;28;20045;-78
2023/10/29 13:05:36;;;;;;;4.22;2.03;;;15.70;99.90;;;;;;6215421;28;20140;-78
2023/10/29 13:08:40;;;;;;;2.95;2.33;;;15.70;99.90;;;;;;6235333;28;20048;-78
2023/10/29 13:11:42;;;;;;;3.03;1.75;;;15.70;99.90;;;;;;6223785;28;20049;-78
2023/10/29 13:14:46;;;;;;;3.30;2.35;;;15.80;99.90;;;;;;6223753;28;20046;-78
2023/10/29 13:17:47;;;;;;;9.77;4.15;;;15.90;99.90;;;;;;6223761;28;20050;-78
2023/10/29 13:20:58;;;;;;;7.00;6.40;;;15.90;99.90;;;;;;6222929;28;20038;-78
2023/10/29 13:24:00;;;;;;;20.13;10.38;;;15.80;99.90;;;;;;6223681;28;20046;-78
2023/10/29 13:27:02;;;;;;;15.32;9.93;;;15.70;99.90;;;;;;6223046;28;20060;-77
2023/10/29 13:30:04;;;;;;;9.70;4.75;;;15.60;99.90;;;;;;6223027;28;20117;-77
2023/10/29 13:33:07;;;;;;;6.35;5.15;;;15.60;99.90;;;;;;6223126;28;20053;-77
2023/10/29 13:36:11;;;;;;;5.63;4.55;;;15.60;99.90;;;;;;6222420;28;20065;-78
2023/10/29 13:39:13;;;;;;;53.03;20.60;;;15.60;99.90;;;;;;6222952;28;20053;-78
2023/10/29 13:42:16;;;;;;;95.22;37.75;;;15.50;99.90;;;;;;6224119;28;20042;-80
2023/10/29 13:45:18;;;;;;;40.92;21.38;;;15.60;99.90;;;;;;6223901;28;20057;-79
2023/10/29 13:48:20;;;;;;;17.35;8.05;;;15.60;99.90;;;;;;6222285;28;20058;-78
2023/10/29 13:51:23;;;;;;;7.93;4.85;;;15.60;99.90;;;;;;6223430;28;20050;-77
2023/10/29 13:54:24;;;;;;;5.63;4.55;;;15.60;99.90;;;;;;6223774;28;20049;-77
2023/10/29 13:57:26;;;;;;;8.30;5.55;;;15.60;99.90;;;;;;6224154;28;20558;-78
2023/10/29 14:00:28;;;;;;;5.72;5.05;;;15.60;99.90;;;;;;6226743;28;20056;-78
2023/10/29 14:03:31;;;;;;;6.70;4.25;;;15.60;99.90;;;;;;6227771;28;20100;-79
2023/10/29 14:06:34;;;;;;;4.90;4.35;;;15.60;99.90;;;;;;6227620;28;20053;-78
2023/10/29 14:09:36;;;;;;;10.65;4.63;;;15.60;99.90;;;;;;6228577;28;20483;-77
2023/10/29 14:12:40;;;;;;;8.07;4.05;;;15.50;99.90;;;;;;6227045;28;20073;-77
2023/10/29 14:15:42;;;;;;;3.70;2.72;;;15.60;99.90;;;;;;6227214;28;20050;-77
2023/10/29 14:18:44;;;;;;;15.35;4.20;;;15.50;99.90;;;;;;6228761;28;20050;-77
2023/10/29 14:21:52;;;;;;;4.95;3.30;;;15.50;99.90;;;;;;6228361;28;20046;-77
2023/10/29 14:24:54;;;;;;;2.58;2.35;;;15.50;99.90;;;;;;6226976;28;20054;-77
2023/10/29 14:27:59;;;;;;;8.13;2.92;;;15.40;99.90;;;;;;6225593;28;20072;-78
2023/10/29 14:31:01;;;;;;;3.97;1.83;;;15.50;99.90;;;;;;6227409;28;20045;-78
2023/10/29 14:34:03;;;;;;;4.13;2.50;;;15.50;99.90;;;;;;6226686;28;20049;-77
2023/10/29 14:37:06;;;;;;;7.05;2.30;;;15.40;99.90;;;;;;6240268;28;20168;-78
2023/10/29 14:40:09;;;;;;;4.50;1.67;;;15.40;99.90;;;;;;6235598;28;20046;-78
2023/10/29 14:43:11;;;;;;;3.95;1.90;;;15.40;99.90;;;;;;6232769;28;20037;-79
2023/10/29 14:46:12;;;;;;;1.70;1.60;;;15.40;99.90;;;;;;6247698;28;20053;-78
2023/10/29 14:49:15;;;;;;;3.95;2.50;;;15.40;99.90;;;;;;6227235;28;20038;-78
2023/10/29 14:52:18;;;;;;;2.40;2.20;;;15.30;99.90;;;;;;6243172;28;20052;-79
2023/10/29 14:55:20;;;;;;;3.63;2.63;;;15.30;99.90;;;;;;6234566;28;20064;-78
2023/10/29 14:58:21;;;;;;;4.03;2.30;;;15.30;99.90;;;;;;6226626;28;20050;-77
2023/10/29 15:01:23;;;;;;;6.00;4.47;;;15.30;99.90;;;;;;6233578;28;20056;-78
2023/10/29 15:04:25;;;;;;;17.85;4.35;;;15.30;99.90;;;;;;6238110;28;20073;-79
2023/10/29 15:07:28;;;;;;;8.80;5.30;;;15.30;99.90;;;;;;6241825;28;20057;-78
2023/10/29 15:10:30;;;;;;;7.45;4.05;;;15.30;99.90;;;;;;6244927;28;20046;-78
2023/10/29 15:13:32;;;;;;;4.82;4.32;;;15.20;99.90;;;;;;6236737;28;20080;-78
2023/10/29 15:16:33;;;;;;;5.40;4.32;;;15.20;99.90;;;;;;6228736;28;20066;-78
2023/10/29 15:19:35;;;;;;;4.38;3.00;;;15.20;99.90;;;;;;6226615;28;20052;-79
2023/10/29 15:22:38;;;;;;;5.25;4.13;;;15.20;99.90;;;;;;6235773;28;20046;-79
2023/10/29 15:25:42;;;;;;;4.68;3.92;;;15.10;99.90;;;;;;6225509;28;20363;-78
2023/10/29 15:28:44;;;;;;;5.97;4.32;;;15.10;99.90;;;;;;6255412;28;20053;-78
2023/10/29 15:31:45;;;;;;;5.93;3.58;;;15.00;99.90;;;;;;6242665;28;20060;-78
2023/10/29 15:34:47;;;;;;;14.48;4.85;;;15.00;99.90;;;;;;6243548;28;20046;-78
2023/10/29 15:37:50;;;;;;;4.70;3.92;;;15.00;99.90;;;;;;6226577;28;20053;-77
2023/10/29 15:40:52;;;;;;;3.13;2.83;;;14.90;99.90;;;;;;6224525;28;20143;-77
2023/10/29 15:43:55;;;;;;;7.13;5.30;;;14.90;99.90;;;;;;6233748;28;20045;-78
2023/10/29 15:46:57;;;;;;;16.25;6.57;;;14.90;99.90;;;;;;6233412;28;20056;-78
2023/10/29 15:49:59;;;;;;;11.30;10.20;;;14.80;99.90;;;;;;6225505;28;20038;-78